Time,TemperatureF,DewpointF,PressureIn,WindDirection,WindDirectionDegrees,WindSpeedMPH,WindSpeedGustMPH,Humidity,HourlyPrecipIn,Conditions,Clouds,dailyrainin,SoftwareType,DateUTC
2013-02-28 00:00:00,33.0,31.2,29.84,WSW,250,2.0,3.0,93,0.00,,,0.00,VWS V14.01,2013-02-28 05:00:00,
2013-02-28 00:01:00,33.0,31.2,29.84,WSW,237,5.0,6.0,93,0.00,,,0.00,VWS V14.01,2013-02-28 05:01:00,
2013-02-28 00:02:00,33.0,31.2,29.84,WSW,249,2.0,3.0,93,0.00,,,0.00,VWS V14.01,2013-02-28 05:02:00,
2013-02-28 00:06:00,33.0,31.2,29.84,WSW,254,2.0,7.0,93,0.00,,,0.00,VWS V14.01,2013-02-28 05:06:00,
2013-02-28 00:11:00,33.0,31.2,29.84,SW,231,4.0,5.0,93,0.00,,,0.00,VWS V14.01,2013-02-28 05:11:00,
2013-02-28 00:16:00,33.0,31.2,29.84,WSW,250,2.0,4.0,93,0.00,,,0.00,VWS V14.01,2013-02-28 05:16:00,
2013-02-28 00:21:00,33.0,31.2,29.84,NW,304,2.0,3.0,93,0.00,,,0.00,VWS V14.01,2013-02-28 05:21:00,
2013-02-28 00:26:00,33.1,31.3,29.84,SW,215,2.0,2.0,93,0.00,,,0.00,VWS V14.01,2013-02-28 05:26:00,
2013-02-28 00:31:00,33.1,31.3,29.84,SW,225,4.0,5.0,93,0.00,,,0.00,VWS V14.01,2013-02-28 05:31:00,
2013-02-28 00:36:00,33.0,31.2,29.84,WSW,249,2.0,2.0,93,0.00,,,0.00,VWS V14.01,2013-02-28 05:36:00,
2013-02-28 00:41:00,33.0,31.2,29.84,SSW,203,9.0,9.0,93,0.00,,,0.00,VWS V14.01,2013-02-28 05:41:00,
2013-02-28 00:46:00,33.0,31.2,29.83,West,259,2.0,6.0,93,0.00,,,0.00,VWS V14.01,2013-02-28 05:46:00,
2013-02-28 00:51:00,33.0,31.2,29.83,WSW,243,3.0,3.0,93,0.00,,,0.00,VWS V14.01,2013-02-28 05:51:00,
2013-02-28 00:56:00,33.0,31.2,29.84,WSW,242,9.0,12.0,93,0.00,,,0.00,VWS V14.01,2013-02-28 05:56:00,
2013-02-28 01:01:00,33.0,31.2,29.84,WSW,250,4.0,7.0,93,0.00,,,0.00,VWS V14.01,2013-02-28 06:01:00,
2013-02-28 01:06:00,33.0,31.2,29.84,WSW,245,3.0,3.0,93,0.00,,,0.00,VWS V14.01,2013-02-28 06:06:00,
2013-02-28 01:11:00,33.0,31.2,29.84,WSW,242,2.0,2.0,93,0.00,,,0.00,VWS V14.01,2013-02-28 06:11:00,
2013-02-28 01:16:00,33.0,31.2,29.84,West,261,1.0,2.0,93,0.00,,,0.00,VWS V14.01,2013-02-28 06:16:00,
2013-02-28 01:21:00,33.0,31.2,29.84,WSW,246,3.0,4.0,93,0.00,,,0.00,VWS V14.01,2013-02-28 06:21:00,
2013-02-28 01:26:00,32.9,31.1,29.84,West,271,2.0,3.0,93,0.00,,,0.00,VWS V14.01,2013-02-28 06:26:00,
2013-02-28 01:31:00,32.9,30.8,29.84,West,272,1.0,2.0,92,0.00,,,0.00,VWS V14.01,2013-02-28 06:31:00,
2013-02-28 01:36:00,32.8,31.0,29.84,WSW,246,2.0,4.0,93,0.00,,,0.00,VWS V14.01,2013-02-28 06:36:00,
2013-02-28 01:41:00,32.8,31.0,29.84,WSW,242,3.0,5.0,93,0.00,,,0.00,VWS V14.01,2013-02-28 06:41:00,
2013-02-28 01:46:00,32.8,31.0,29.84,WSW,250,4.0,5.0,93,0.00,,,0.00,VWS V14.01,2013-02-28 06:46:00,
2013-02-28 01:51:00,32.8,30.7,29.84,WSW,247,5.0,10.0,92,0.00,,,0.00,VWS V14.01,2013-02-28 06:51:00,
2013-02-28 01:56:00,32.9,30.8,29.84,SW,230,5.0,6.0,92,0.00,,,0.00,VWS V14.01,2013-02-28 06:56:00,
2013-02-28 02:01:00,32.8,30.7,29.84,SW,228,6.0,6.0,92,0.00,,,0.00,VWS V14.01,2013-02-28 07:01:00,
2013-02-28 02:06:00,32.9,30.8,29.84,SW,230,5.0,5.0,92,0.00,,,0.00,VWS V14.01,2013-02-28 07:06:00,
2013-02-28 02:12:00,32.9,30.8,29.84,WSW,242,5.0,5.0,92,0.00,,,0.00,VWS V14.01,2013-02-28 07:12:00,
2013-02-28 02:17:00,32.8,30.7,29.84,WSW,249,3.0,3.0,92,0.00,,,0.00,VWS V14.01,2013-02-28 07:17:00,
2013-02-28 02:22:00,32.8,30.7,29.84,WSW,242,1.0,6.0,92,0.00,,,0.00,VWS V14.01,2013-02-28 07:22:00,
2013-02-28 02:27:00,32.9,31.1,29.84,WSW,246,2.0,3.0,93,0.00,,,0.00,VWS V14.01,2013-02-28 07:27:00,
2013-02-28 02:32:00,32.8,31.0,29.84,West,269,4.0,5.0,93,0.00,,,0.00,VWS V14.01,2013-02-28 07:32:00,
2013-02-28 02:37:00,32.8,31.0,29.84,WSW,244,6.0,6.0,93,0.00,,,0.00,VWS V14.01,2013-02-28 07:37:00,
2013-02-28 02:42:00,32.8,30.7,29.84,West,262,4.0,5.0,92,0.00,,,0.00,VWS V14.01,2013-02-28 07:42:00,
2013-02-28 02:47:00,32.8,30.7,29.84,WSW,249,3.0,6.0,92,0.00,,,0.00,VWS V14.01,2013-02-28 07:47:00,
2013-02-28 02:52:00,32.9,30.8,29.84,SW,214,6.0,6.0,92,0.00,,,0.00,VWS V14.01,2013-02-28 07:52:00,
2013-02-28 02:57:00,32.9,30.8,29.84,West,261,8.0,8.0,92,0.00,,,0.00,VWS V14.01,2013-02-28 07:57:00,
2013-02-28 03:02:00,32.9,30.8,29.84,West,269,1.0,4.0,92,0.00,,,0.00,VWS V14.01,2013-02-28 08:02:00,
2013-02-28 03:07:00,32.8,30.7,29.84,WSW,245,2.0,4.0,92,0.00,,,0.00,VWS V14.01,2013-02-28 08:07:00,
2013-02-28 03:12:00,32.8,30.7,29.84,SW,217,3.0,3.0,92,0.00,,,0.00,VWS V14.01,2013-02-28 08:12:00,
2013-02-28 03:17:00,32.8,30.7,29.84,WSW,240,1.0,4.0,92,0.00,,,0.00,VWS V14.01,2013-02-28 08:17:00,
2013-02-28 03:22:00,32.7,30.6,29.83,WSW,238,2.0,4.0,92,0.00,,,0.00,VWS V14.01,2013-02-28 08:22:00,
2013-02-28 03:27:00,32.7,30.6,29.83,WSW,239,3.0,4.0,92,0.00,,,0.00,VWS V14.01,2013-02-28 08:27:00,
2013-02-28 03:32:00,32.7,30.6,29.83,WSW,249,4.0,6.0,92,0.01,,,0.01,VWS V14.01,2013-02-28 08:32:00,
2013-02-28 03:37:00,32.7,30.4,29.83,WSW,256,2.0,3.0,91,0.01,,,0.01,VWS V14.01,2013-02-28 08:37:00,
2013-02-28 03:42:00,32.7,30.6,29.83,SW,219,3.0,4.0,92,0.01,,,0.01,VWS V14.01,2013-02-28 08:42:00,
2013-02-28 03:47:00,32.6,30.5,29.83,SW,231,1.0,4.0,92,0.01,,,0.01,VWS V14.01,2013-02-28 08:47:00,
2013-02-28 03:52:00,32.5,30.4,29.83,WSW,240,3.0,5.0,92,0.01,,,0.01,VWS V14.01,2013-02-28 08:52:00,
2013-02-28 03:57:00,32.4,30.3,29.84,West,281,4.0,4.0,92,0.01,,,0.01,VWS V14.01,2013-02-28 08:57:00,
2013-02-28 04:02:00,32.3,30.5,29.84,WSW,244,2.0,4.0,93,0.01,,,0.01,VWS V14.01,2013-02-28 09:02:00,
2013-02-28 04:07:00,32.3,30.5,29.84,WSW,254,2.0,3.0,93,0.01,,,0.01,VWS V14.01,2013-02-28 09:07:00,
2013-02-28 04:12:00,32.3,30.5,29.84,SSW,206,3.0,9.0,93,0.01,,,0.01,VWS V14.01,2013-02-28 09:12:00,
2013-02-28 04:17:00,32.3,30.5,29.85,SW,231,3.0,3.0,93,0.01,,,0.01,VWS V14.01,2013-02-28 09:17:00,
2013-02-28 04:22:00,32.2,30.4,29.85,West,259,9.0,9.0,93,0.01,,,0.01,VWS V14.01,2013-02-28 09:22:00,
2013-02-28 04:27:00,32.2,30.4,29.85,WSW,257,2.0,2.0,93,0.01,,,0.01,VWS V14.01,2013-02-28 09:27:00,
2013-02-28 04:33:00,32.3,30.5,29.85,WSW,248,2.0,3.0,93,0.01,,,0.01,VWS V14.01,2013-02-28 09:33:00,
2013-02-28 04:38:00,32.2,30.4,29.85,WSW,244,1.0,2.0,93,0.00,,,0.01,VWS V14.01,2013-02-28 09:38:00,
2013-02-28 04:43:00,32.1,30.0,29.85,WSW,252,2.0,2.0,92,0.00,,,0.01,VWS V14.01,2013-02-28 09:43:00,
2013-02-28 04:48:00,32.2,30.1,29.85,WSW,251,5.0,7.0,92,0.00,,,0.01,VWS V14.01,2013-02-28 09:48:00,
2013-02-28 04:53:00,32.2,30.1,29.86,WSW,246,3.0,6.0,92,0.00,,,0.01,VWS V14.01,2013-02-28 09:53:00,
2013-02-28 04:58:00,32.2,30.1,29.86,WSW,254,3.0,9.0,92,0.00,,,0.01,VWS V14.01,2013-02-28 09:58:00,
2013-02-28 05:03:00,32.2,30.1,29.86,WSW,249,3.0,6.0,92,0.00,,,0.01,VWS V14.01,2013-02-28 10:03:00,
2013-02-28 05:08:00,32.2,30.1,29.86,WSW,245,2.0,3.0,92,0.00,,,0.01,VWS V14.01,2013-02-28 10:08:00,
2013-02-28 05:13:00,32.2,30.1,29.86,West,265,2.0,11.0,92,0.00,,,0.01,VWS V14.01,2013-02-28 10:13:00,
2013-02-28 05:18:00,32.3,30.2,29.86,West,260,4.0,5.0,92,0.00,,,0.01,VWS V14.01,2013-02-28 10:18:00,
2013-02-28 05:23:00,32.3,30.2,29.86,SW,236,2.0,2.0,92,0.00,,,0.01,VWS V14.01,2013-02-28 10:23:00,
2013-02-28 05:28:00,32.2,30.1,29.87,SW,226,4.0,4.0,92,0.00,,,0.01,VWS V14.01,2013-02-28 10:28:00,
2013-02-28 05:33:00,32.2,30.1,29.87,WSW,240,2.0,4.0,92,0.00,,,0.01,VWS V14.01,2013-02-28 10:33:00,
2013-02-28 05:38:00,32.1,30.0,29.87,West,259,2.0,2.0,92,0.00,,,0.01,VWS V14.01,2013-02-28 10:38:00,
2013-02-28 05:43:00,32.1,30.0,29.87,SW,224,4.0,11.0,92,0.00,,,0.01,VWS V14.01,2013-02-28 10:43:00,
2013-02-28 05:48:00,32.1,30.0,29.87,WSW,242,4.0,5.0,92,0.00,,,0.01,VWS V14.01,2013-02-28 10:48:00,
2013-02-28 05:53:00,32.1,30.0,29.87,West,269,1.0,6.0,92,0.00,,,0.01,VWS V14.01,2013-02-28 10:53:00,
2013-02-28 05:58:00,32.1,29.8,29.88,West,269,0.0,3.0,91,0.00,,,0.01,VWS V14.01,2013-02-28 10:58:00,
2013-02-28 06:03:00,32.1,30.0,29.88,SW,226,1.0,4.0,92,0.00,,,0.01,VWS V14.01,2013-02-28 11:03:00,
2013-02-28 06:08:00,32.1,30.0,29.88,SW,236,7.0,7.0,92,0.00,,,0.01,VWS V14.01,2013-02-28 11:08:00,
2013-02-28 06:13:00,32.1,30.0,29.88,SW,234,1.0,3.0,92,0.00,,,0.01,VWS V14.01,2013-02-28 11:13:00,
2013-02-28 06:18:00,32.1,30.0,29.88,WSW,241,0.0,3.0,92,0.00,,,0.01,VWS V14.01,2013-02-28 11:18:00,
2013-02-28 06:23:00,32.1,30.0,29.88,WSW,246,5.0,8.0,92,0.00,,,0.01,VWS V14.01,2013-02-28 11:23:00,
2013-02-28 06:29:00,32.1,30.0,29.88,West,267,10.0,10.0,92,0.00,,,0.01,VWS V14.01,2013-02-28 11:29:00,
2013-02-28 06:34:00,32.1,30.0,29.88,WSW,251,3.0,5.0,92,0.00,,,0.01,VWS V14.01,2013-02-28 11:34:00,
2013-02-28 06:39:00,32.1,30.0,29.88,WSW,241,3.0,4.0,92,0.00,,,0.01,VWS V14.01,2013-02-28 11:39:00,
2013-02-28 06:44:00,32.1,30.0,29.88,SW,235,4.0,8.0,92,0.00,,,0.01,VWS V14.01,2013-02-28 11:44:00,
2013-02-28 06:49:00,32.1,29.8,29.88,WSW,241,2.0,3.0,91,0.00,,,0.01,VWS V14.01,2013-02-28 11:49:00,
2013-02-28 06:54:00,32.1,29.8,29.88,WSW,244,9.0,12.0,91,0.00,,,0.01,VWS V14.01,2013-02-28 11:54:00,
2013-02-28 06:59:00,32.1,29.8,29.88,WSW,242,5.0,5.0,91,0.00,,,0.01,VWS V14.01,2013-02-28 11:59:00,
2013-02-28 07:04:00,32.1,29.8,29.89,WSW,237,4.0,4.0,91,0.00,,,0.01,VWS V14.01,2013-02-28 12:04:00,
2013-02-28 07:09:00,32.2,29.9,29.89,WSW,257,4.0,5.0,91,0.00,,,0.01,VWS V14.01,2013-02-28 12:09:00,
2013-02-28 07:14:00,32.1,29.8,29.89,West,259,6.0,7.0,91,0.00,,,0.01,VWS V14.01,2013-02-28 12:14:00,
2013-02-28 07:19:00,32.1,29.8,29.89,SW,232,3.0,4.0,91,0.00,,,0.01,VWS V14.01,2013-02-28 12:19:00,
2013-02-28 07:24:00,32.1,29.8,29.89,West,277,2.0,4.0,91,0.00,,,0.01,VWS V14.01,2013-02-28 12:24:00,
2013-02-28 07:29:00,32.1,29.8,29.89,WSW,241,14.0,14.0,91,0.00,,,0.01,VWS V14.01,2013-02-28 12:29:00,
2013-02-28 07:34:00,32.1,29.8,29.90,WSW,240,3.0,6.0,91,0.00,,,0.01,VWS V14.01,2013-02-28 12:34:00,
2013-02-28 07:39:00,32.1,29.8,29.90,WSW,256,1.0,3.0,91,0.00,,,0.01,VWS V14.01,2013-02-28 12:39:00,
2013-02-28 07:44:00,32.1,29.8,29.90,West,261,4.0,5.0,91,0.00,,,0.01,VWS V14.01,2013-02-28 12:44:00,
2013-02-28 07:49:00,32.1,29.8,29.90,WSW,240,8.0,9.0,91,0.00,,,0.01,VWS V14.01,2013-02-28 12:49:00,
2013-02-28 07:54:00,32.1,29.8,29.91,SSW,210,5.0,8.0,91,0.00,,,0.01,VWS V14.01,2013-02-28 12:54:00,
2013-02-28 07:59:00,32.1,29.8,29.91,WSW,250,2.0,4.0,91,0.00,,,0.01,VWS V14.01,2013-02-28 12:59:00,
2013-02-28 08:04:00,32.2,29.9,29.91,West,259,4.0,6.0,91,0.00,,,0.01,VWS V14.01,2013-02-28 13:04:00,
2013-02-28 08:09:00,32.2,29.9,29.92,WSW,238,5.0,7.0,91,0.00,,,0.01,VWS V14.01,2013-02-28 13:09:00,
2013-02-28 08:14:00,32.2,29.9,29.92,WSW,250,2.0,5.0,91,0.00,,,0.01,VWS V14.01,2013-02-28 13:14:00,
2013-02-28 08:19:00,32.3,30.0,29.92,WSW,248,4.0,7.0,91,0.00,,,0.01,VWS V14.01,2013-02-28 13:19:00,
2013-02-28 08:24:00,32.3,30.0,29.92,WSW,250,5.0,5.0,91,0.00,,,0.01,VWS V14.01,2013-02-28 13:24:00,
2013-02-28 08:29:00,32.3,30.0,29.92,SW,226,3.0,14.0,91,0.00,,,0.01,VWS V14.01,2013-02-28 13:29:00,
2013-02-28 08:34:00,32.3,30.0,29.92,WSW,246,5.0,5.0,91,0.00,,,0.01,VWS V14.01,2013-02-28 13:34:00,
2013-02-28 08:39:00,32.3,30.0,29.92,SW,234,2.0,3.0,91,0.00,,,0.01,VWS V14.01,2013-02-28 13:39:00,
2013-02-28 08:44:00,32.3,30.0,29.93,WSW,243,3.0,3.0,91,0.00,,,0.01,VWS V14.01,2013-02-28 13:44:00,
2013-02-28 08:49:00,32.3,30.2,29.93,WSW,242,8.0,10.0,92,0.00,,,0.01,VWS V14.01,2013-02-28 13:49:00,
2013-02-28 08:54:00,32.4,30.3,29.93,West,263,0.0,3.0,92,0.00,,,0.01,VWS V14.01,2013-02-28 13:54:00,
2013-02-28 09:00:00,32.3,30.2,29.93,WSW,252,2.0,3.0,92,0.00,,,0.01,VWS V14.01,2013-02-28 14:00:00,
2013-02-28 09:05:00,32.3,30.2,29.93,West,263,7.0,10.0,92,0.00,,,0.01,VWS V14.01,2013-02-28 14:05:00,
2013-02-28 09:10:00,32.3,30.2,29.93,West,269,2.0,6.0,92,0.00,,,0.01,VWS V14.01,2013-02-28 14:10:00,
2013-02-28 09:15:00,32.4,30.3,29.94,SW,235,2.0,3.0,92,0.00,,,0.01,VWS V14.01,2013-02-28 14:15:00,
2013-02-28 09:20:00,32.4,30.3,29.93,WSW,252,7.0,9.0,92,0.00,,,0.01,VWS V14.01,2013-02-28 14:20:00,
2013-02-28 09:25:00,32.4,30.3,29.94,WSW,250,1.0,3.0,92,0.00,,,0.01,VWS V14.01,2013-02-28 14:25:00,
2013-02-28 09:30:00,32.5,30.4,29.94,West,261,0.0,4.0,92,0.00,,,0.01,VWS V14.01,2013-02-28 14:30:00,
2013-02-28 09:35:00,32.5,30.4,29.94,West,263,4.0,5.0,92,0.00,,,0.01,VWS V14.01,2013-02-28 14:35:00,
2013-02-28 09:40:00,32.5,30.4,29.94,SW,228,3.0,5.0,92,0.00,,,0.01,VWS V14.01,2013-02-28 14:40:00,
2013-02-28 09:45:00,32.6,30.5,29.94,WSW,246,4.0,4.0,92,0.00,,,0.01,VWS V14.01,2013-02-28 14:45:00,
2013-02-28 09:50:00,32.6,30.5,29.94,WSW,244,0.0,2.0,92,0.00,,,0.01,VWS V14.01,2013-02-28 14:50:00,
2013-02-28 09:55:00,32.6,30.8,29.94,West,268,2.0,9.0,93,0.00,,,0.01,VWS V14.01,2013-02-28 14:55:00,
2013-02-28 10:00:00,32.6,30.8,29.94,WSW,240,1.0,4.0,93,0.00,,,0.01,VWS V14.01,2013-02-28 15:00:00,
2013-02-28 10:05:00,32.7,30.9,29.94,WSW,249,3.0,5.0,93,0.00,,,0.01,VWS V14.01,2013-02-28 15:05:00,
2013-02-28 10:10:00,32.7,30.9,29.95,SW,234,3.0,4.0,93,0.00,,,0.01,VWS V14.01,2013-02-28 15:10:00,
2013-02-28 10:15:00,32.7,30.6,29.95,SW,232,1.0,6.0,92,0.00,,,0.01,VWS V14.01,2013-02-28 15:15:00,
2013-02-28 10:20:00,32.7,30.9,29.95,SW,227,3.0,9.0,93,0.00,,,0.01,VWS V14.01,2013-02-28 15:20:00,
2013-02-28 10:25:00,32.7,30.9,29.95,West,262,2.0,2.0,93,0.00,,,0.01,VWS V14.01,2013-02-28 15:25:00,
2013-02-28 10:30:00,32.8,31.0,29.95,WSW,244,6.0,6.0,93,0.00,,,0.01,VWS V14.01,2013-02-28 15:30:00,
2013-02-28 10:35:00,32.8,31.0,29.95,West,263,4.0,5.0,93,0.00,,,0.01,VWS V14.01,2013-02-28 15:35:00,
2013-02-28 10:40:00,32.8,31.0,29.95,WSW,240,4.0,5.0,93,0.00,,,0.01,VWS V14.01,2013-02-28 15:40:00,
2013-02-28 10:45:00,32.9,31.1,29.95,WSW,254,3.0,3.0,93,0.00,,,0.01,VWS V14.01,2013-02-28 15:45:00,
2013-02-28 10:50:00,33.0,31.2,29.95,WSW,239,6.0,12.0,93,0.00,,,0.01,VWS V14.01,2013-02-28 15:50:00,
2013-02-28 10:55:00,33.1,31.3,29.95,West,271,2.0,3.0,93,0.00,,,0.01,VWS V14.01,2013-02-28 15:55:00,
2013-02-28 11:00:00,33.2,31.4,29.95,WSW,248,4.0,4.0,93,0.00,,,0.01,VWS V14.01,2013-02-28 16:00:00,
2013-02-28 11:05:00,33.3,31.5,29.95,SW,234,10.0,10.0,93,0.00,,,0.01,VWS V14.01,2013-02-28 16:05:00,
2013-02-28 11:11:00,33.3,31.5,29.96,West,259,2.0,6.0,93,0.00,,,0.01,VWS V14.01,2013-02-28 16:11:00,
2013-02-28 11:16:00,33.4,31.6,29.95,WSW,248,2.0,6.0,93,0.00,,,0.01,VWS V14.01,2013-02-28 16:16:00,
2013-02-28 11:21:00,33.5,31.7,29.96,West,269,6.0,9.0,93,0.00,,,0.01,VWS V14.01,2013-02-28 16:21:00,
2013-02-28 11:26:00,33.6,31.5,29.96,WSW,240,2.0,2.0,92,0.00,,,0.01,VWS V14.01,2013-02-28 16:26:00,
2013-02-28 11:31:00,33.8,32.0,29.96,West,259,4.0,4.0,93,0.00,,,0.01,VWS V14.01,2013-02-28 16:31:00,
2013-02-28 11:36:00,33.9,31.8,29.96,SSW,198,14.0,14.0,92,0.00,,,0.01,VWS V14.01,2013-02-28 16:36:00,
2013-02-28 11:41:00,34.0,31.9,29.97,WSW,240,2.0,3.0,92,0.00,,,0.01,VWS V14.01,2013-02-28 16:41:00,
2013-02-28 11:46:00,34.1,32.0,29.97,West,267,4.0,5.0,92,0.00,,,0.01,VWS V14.01,2013-02-28 16:46:00,
2013-02-28 11:51:00,34.2,32.1,29.97,WSW,242,2.0,3.0,92,0.00,,,0.01,VWS V14.01,2013-02-28 16:51:00,
2013-02-28 11:56:00,34.2,32.1,29.97,WSW,246,2.0,3.0,92,0.00,,,0.01,VWS V14.01,2013-02-28 16:56:00,
2013-02-28 12:01:00,34.2,32.1,29.97,West,264,3.0,4.0,92,0.00,,,0.01,VWS V14.01,2013-02-28 17:01:00,
2013-02-28 12:06:00,34.2,32.1,29.97,West,270,3.0,11.0,92,0.00,,,0.01,VWS V14.01,2013-02-28 17:06:00,
2013-02-28 12:11:00,34.2,32.1,29.97,WSW,254,4.0,4.0,92,0.00,,,0.01,VWS V14.01,2013-02-28 17:11:00,
2013-02-28 12:16:00,34.2,32.1,29.98,WNW,292,0.0,3.0,92,0.00,,,0.01,VWS V14.01,2013-02-28 17:16:00,
2013-02-28 12:21:00,34.3,32.2,29.97,West,259,4.0,5.0,92,0.00,,,0.01,VWS V14.01,2013-02-28 17:21:00,
2013-02-28 12:26:00,34.4,32.3,29.97,WSW,255,3.0,3.0,92,0.00,,,0.01,VWS V14.01,2013-02-28 17:26:00,
2013-02-28 12:31:00,34.4,32.3,29.97,SW,232,3.0,11.0,92,0.00,,,0.01,VWS V14.01,2013-02-28 17:31:00,
2013-02-28 12:36:00,34.4,32.0,29.97,SW,229,3.0,3.0,91,0.00,,,0.01,VWS V14.01,2013-02-28 17:36:00,
2013-02-28 12:41:00,34.4,32.0,29.97,WSW,244,2.0,2.0,91,0.00,,,0.01,VWS V14.01,2013-02-28 17:41:00,
2013-02-28 12:46:00,34.4,32.3,29.97,WSW,247,4.0,4.0,92,0.00,,,0.01,VWS V14.01,2013-02-28 17:46:00,
2013-02-28 12:51:00,34.4,32.3,29.97,West,262,1.0,2.0,92,0.00,,,0.01,VWS V14.01,2013-02-28 17:51:00,
2013-02-28 12:57:00,34.4,32.0,29.97,WSW,249,6.0,6.0,91,0.00,,,0.01,VWS V14.01,2013-02-28 17:57:00,
2013-02-28 13:02:00,34.4,32.3,29.97,WNW,293,1.0,4.0,92,0.00,,,0.01,VWS V14.01,2013-02-28 18:02:00,
2013-02-28 13:07:00,34.4,32.3,29.96,West,259,3.0,3.0,92,0.00,,,0.01,VWS V14.01,2013-02-28 18:07:00,
2013-02-28 13:12:00,34.4,32.3,29.96,West,279,2.0,3.0,92,0.00,,,0.01,VWS V14.01,2013-02-28 18:12:00,
2013-02-28 13:17:00,34.4,32.3,29.96,West,259,2.0,5.0,92,0.00,,,0.01,VWS V14.01,2013-02-28 18:17:00,
2013-02-28 13:22:00,34.4,32.3,29.96,WSW,250,1.0,4.0,92,0.00,,,0.01,VWS V14.01,2013-02-28 18:22:00,
2013-02-28 13:27:00,34.4,32.3,29.96,WSW,240,3.0,3.0,92,0.00,,,0.01,VWS V14.01,2013-02-28 18:27:00,
2013-02-28 13:32:00,34.4,32.3,29.97,WSW,249,3.0,3.0,92,0.00,,,0.01,VWS V14.01,2013-02-28 18:32:00,
2013-02-28 13:37:00,34.4,32.3,29.96,SW,234,2.0,3.0,92,0.00,,,0.01,VWS V14.01,2013-02-28 18:37:00,
2013-02-28 13:42:00,34.4,32.3,29.96,WSW,252,5.0,10.0,92,0.00,,,0.01,VWS V14.01,2013-02-28 18:42:00,
2013-02-28 13:47:00,34.4,32.3,29.96,WNW,286,3.0,3.0,92,0.00,,,0.01,VWS V14.01,2013-02-28 18:47:00,
2013-02-28 13:52:00,34.4,32.3,29.97,West,262,3.0,3.0,92,0.00,,,0.01,VWS V14.01,2013-02-28 18:52:00,
2013-02-28 13:57:00,34.4,32.3,29.97,WSW,252,3.0,10.0,92,0.00,,,0.01,VWS V14.01,2013-02-28 18:57:00,
2013-02-28 14:02:00,34.4,32.3,29.96,West,263,4.0,9.0,92,0.00,,,0.01,VWS V14.01,2013-02-28 19:02:00,
2013-02-28 14:07:00,34.4,32.3,29.97,West,264,5.0,5.0,92,0.00,,,0.01,VWS V14.01,2013-02-28 19:07:00,
2013-02-28 14:12:00,34.4,32.3,29.97,WSW,256,4.0,4.0,92,0.00,,,0.01,VWS V14.01,2013-02-28 19:12:00,
2013-02-28 14:17:00,34.4,32.3,29.97,WSW,246,2.0,2.0,92,0.00,,,0.01,VWS V14.01,2013-02-28 19:17:00,
2013-02-28 14:22:00,34.4,32.3,29.97,West,267,3.0,5.0,92,0.00,,,0.01,VWS V14.01,2013-02-28 19:22:00,
2013-02-28 14:27:00,34.4,32.3,29.97,West,265,2.0,5.0,92,0.00,,,0.01,VWS V14.01,2013-02-28 19:27:00,
2013-02-28 14:32:00,34.4,32.3,29.97,West,266,2.0,4.0,92,0.00,,,0.01,VWS V14.01,2013-02-28 19:32:00,
2013-02-28 14:37:00,34.4,32.3,29.97,SSW,203,2.0,3.0,92,0.00,,,0.01,VWS V14.01,2013-02-28 19:37:00,
2013-02-28 14:42:00,34.4,32.3,29.97,WSW,252,3.0,3.0,92,0.00,,,0.01,VWS V14.01,2013-02-28 19:42:00,
2013-02-28 14:48:00,34.4,32.6,29.98,WSW,245,3.0,4.0,93,0.00,,,0.01,VWS V14.01,2013-02-28 19:48:00,
2013-02-28 14:53:00,34.4,32.6,29.98,SW,225,2.0,3.0,93,0.00,,,0.01,VWS V14.01,2013-02-28 19:53:00,
2013-02-28 14:58:00,34.4,32.6,29.98,WSW,250,2.0,4.0,93,0.00,,,0.01,VWS V14.01,2013-02-28 19:58:00,
2013-02-28 15:03:00,34.4,32.6,29.98,West,263,2.0,3.0,93,0.00,,,0.01,VWS V14.01,2013-02-28 20:03:00,
2013-02-28 15:08:00,34.4,32.6,29.98,West,261,3.0,4.0,93,0.00,,,0.01,VWS V14.01,2013-02-28 20:08:00,
2013-02-28 15:13:00,34.4,32.6,29.98,West,260,3.0,5.0,93,0.00,,,0.01,VWS V14.01,2013-02-28 20:13:00,
2013-02-28 15:18:00,34.4,32.6,29.98,NW,306,7.0,10.0,93,0.00,,,0.01,VWS V14.01,2013-02-28 20:18:00,
2013-02-28 15:23:00,34.4,32.6,29.98,WSW,239,4.0,5.0,93,0.00,,,0.01,VWS V14.01,2013-02-28 20:23:00,
2013-02-28 15:28:00,34.4,32.6,29.98,WSW,246,4.0,9.0,93,0.00,,,0.01,VWS V14.01,2013-02-28 20:28:00,
2013-02-28 15:33:00,34.5,32.7,29.99,WSW,248,1.0,3.0,93,0.00,,,0.01,VWS V14.01,2013-02-28 20:33:00,
2013-02-28 15:38:00,34.6,32.8,29.99,WSW,242,2.0,2.0,93,0.00,,,0.01,VWS V14.01,2013-02-28 20:38:00,
2013-02-28 15:43:00,34.7,32.9,29.99,WSW,244,3.0,3.0,93,0.00,,,0.01,VWS V14.01,2013-02-28 20:43:00,
2013-02-28 15:48:00,34.7,32.9,29.99,West,259,3.0,3.0,93,0.00,,,0.01,VWS V14.01,2013-02-28 20:48:00,
2013-02-28 15:53:00,34.9,33.1,29.99,WSW,249,0.0,3.0,93,0.00,,,0.01,VWS V14.01,2013-02-28 20:53:00,
2013-02-28 15:58:00,34.9,33.1,29.99,WSW,250,3.0,3.0,93,0.00,,,0.01,VWS V14.01,2013-02-28 20:58:00,
2013-02-28 16:03:00,35.0,33.2,29.99,West,260,4.0,6.0,93,0.00,,,0.01,VWS V14.01,2013-02-28 21:03:00,
2013-02-28 16:08:00,35.0,32.9,30.00,WSW,242,2.0,5.0,92,0.00,,,0.01,VWS V14.01,2013-02-28 21:08:00,
2013-02-28 16:13:00,35.0,32.9,30.00,WSW,257,2.0,4.0,92,0.00,,,0.01,VWS V14.01,2013-02-28 21:13:00,
2013-02-28 16:18:00,35.1,33.0,30.00,WSW,257,1.0,4.0,92,0.00,,,0.01,VWS V14.01,2013-02-28 21:18:00,
2013-02-28 16:23:00,35.1,33.0,30.00,WSW,246,3.0,4.0,92,0.00,,,0.01,VWS V14.01,2013-02-28 21:23:00,
2013-02-28 16:28:00,35.1,33.0,30.00,WSW,248,1.0,2.0,92,0.00,,,0.01,VWS V14.01,2013-02-28 21:28:00,
2013-02-28 16:33:00,35.1,33.0,30.00,WSW,248,2.0,3.0,92,0.00,,,0.01,VWS V14.01,2013-02-28 21:33:00,
2013-02-28 16:38:00,35.2,33.1,30.01,WSW,257,1.0,2.0,92,0.00,,,0.01,VWS V14.01,2013-02-28 21:38:00,
2013-02-28 16:43:00,35.2,33.1,30.01,WSW,245,7.0,7.0,92,0.00,,,0.01,VWS V14.01,2013-02-28 21:43:00,
2013-02-28 16:48:00,35.2,33.1,30.01,WSW,257,4.0,4.0,92,0.00,,,0.01,VWS V14.01,2013-02-28 21:48:00,
2013-02-28 16:54:00,35.2,33.1,30.01,West,263,4.0,5.0,92,0.00,,,0.01,VWS V14.01,2013-02-28 21:54:00,
2013-02-28 16:59:00,35.2,33.1,30.01,West,266,0.0,3.0,92,0.00,,,0.01,VWS V14.01,2013-02-28 21:59:00,
2013-02-28 17:04:00,35.3,33.2,30.02,WSW,246,2.0,3.0,92,0.00,,,0.01,VWS V14.01,2013-02-28 22:04:00,
2013-02-28 17:09:00,35.3,33.2,30.02,WSW,258,4.0,6.0,92,0.00,,,0.01,VWS V14.01,2013-02-28 22:09:00,
2013-02-28 17:14:00,35.4,33.3,30.02,SW,235,4.0,6.0,92,0.00,,,0.01,VWS V14.01,2013-02-28 22:14:00,
2013-02-28 17:19:00,35.4,33.3,30.03,WSW,248,2.0,4.0,92,0.00,,,0.01,VWS V14.01,2013-02-28 22:19:00,
2013-02-28 17:24:00,35.4,33.0,30.03,WSW,249,2.0,3.0,91,0.00,,,0.01,VWS V14.01,2013-02-28 22:24:00,
2013-02-28 17:29:00,35.5,33.1,30.03,WSW,248,4.0,4.0,91,0.00,,,0.01,VWS V14.01,2013-02-28 22:29:00,
2013-02-28 17:34:00,35.6,33.2,30.03,West,271,5.0,7.0,91,0.00,,,0.01,VWS V14.01,2013-02-28 22:34:00,
2013-02-28 17:39:00,35.6,33.2,30.03,West,261,0.0,2.0,91,0.00,,,0.01,VWS V14.01,2013-02-28 22:39:00,
2013-02-28 17:44:00,35.6,33.2,30.03,West,264,2.0,3.0,91,0.00,,,0.01,VWS V14.01,2013-02-28 22:44:00,
2013-02-28 17:49:00,35.7,33.3,30.04,WSW,254,0.0,2.0,91,0.00,,,0.01,VWS V14.01,2013-02-28 22:49:00,
2013-02-28 17:54:00,35.7,33.3,30.04,WSW,249,2.0,2.0,91,0.00,,,0.01,VWS V14.01,2013-02-28 22:54:00,
2013-02-28 17:59:00,35.7,33.3,30.04,West,268,1.0,2.0,91,0.00,,,0.01,VWS V14.01,2013-02-28 22:59:00,
2013-02-28 18:04:00,35.6,33.2,30.04,West,259,3.0,4.0,91,0.00,,,0.01,VWS V14.01,2013-02-28 23:04:00,
2013-02-28 18:09:00,35.6,33.2,30.04,WSW,251,1.0,1.0,91,0.00,,,0.01,VWS V14.01,2013-02-28 23:09:00,
2013-02-28 18:14:00,35.6,33.5,30.04,WSW,246,1.0,3.0,92,0.00,,,0.01,VWS V14.01,2013-02-28 23:14:00,
2013-02-28 18:19:00,35.5,33.4,30.04,WSW,248,4.0,10.0,92,0.00,,,0.01,VWS V14.01,2013-02-28 23:19:00,
2013-02-28 18:24:00,35.5,33.4,30.04,WSW,248,2.0,2.0,92,0.00,,,0.01,VWS V14.01,2013-02-28 23:24:00,
2013-02-28 18:29:00,35.5,33.4,30.04,SW,227,2.0,3.0,92,0.00,,,0.01,VWS V14.01,2013-02-28 23:29:00,
2013-02-28 18:34:00,35.5,33.4,30.04,WSW,240,2.0,5.0,92,0.00,,,0.01,VWS V14.01,2013-02-28 23:34:00,
2013-02-28 18:39:00,35.3,33.2,30.04,West,260,2.0,3.0,92,0.00,,,0.01,VWS V14.01,2013-02-28 23:39:00,
2013-02-28 18:44:00,35.3,33.2,30.05,West,261,2.0,2.0,92,0.00,,,0.01,VWS V14.01,2013-02-28 23:44:00,
2013-02-28 18:49:00,35.3,33.2,30.05,West,261,2.0,2.0,92,0.00,,,0.01,VWS V14.01,2013-02-28 23:49:00,
2013-02-28 18:54:00,35.2,33.1,30.05,WSW,242,1.0,3.0,92,0.00,,,0.01,VWS V14.01,2013-02-28 23:54:00,
2013-02-28 18:59:00,35.2,33.4,30.05,WSW,246,0.0,2.0,93,0.00,,,0.01,VWS V14.01,2013-02-28 23:59:00,
2013-02-28 19:05:00,35.2,33.4,30.05,West,271,3.0,5.0,93,0.00,,,0.01,VWS V14.01,2013-03-01 00:05:00,
2013-02-28 19:10:00,35.1,33.3,30.05,WSW,252,4.0,4.0,93,0.00,,,0.01,VWS V14.01,2013-03-01 00:10:00,
2013-02-28 19:15:00,35.1,33.3,30.05,WSW,248,3.0,3.0,93,0.00,,,0.01,VWS V14.01,2013-03-01 00:15:00,
2013-02-28 19:20:00,35.1,33.3,30.05,SW,217,2.0,8.0,93,0.00,,,0.01,VWS V14.01,2013-03-01 00:20:00,
2013-02-28 19:25:00,35.1,33.3,30.05,SW,221,1.0,3.0,93,0.00,,,0.01,VWS V14.01,2013-03-01 00:25:00,
2013-02-28 19:30:00,35.1,33.3,30.05,SW,231,1.0,3.0,93,0.00,,,0.01,VWS V14.01,2013-03-01 00:30:00,
2013-02-28 19:35:00,35.0,33.2,30.05,SW,236,2.0,2.0,93,0.00,,,0.01,VWS V14.01,2013-03-01 00:35:00,
2013-02-28 19:40:00,35.0,33.5,30.05,SW,236,0.0,1.0,94,0.00,,,0.01,VWS V14.01,2013-03-01 00:40:00,
2013-02-28 19:45:00,35.0,33.5,30.05,WSW,239,1.0,1.0,94,0.00,,,0.01,VWS V14.01,2013-03-01 00:45:00,
2013-02-28 19:50:00,35.0,33.5,30.05,WSW,240,0.0,3.0,94,0.00,,,0.01,VWS V14.01,2013-03-01 00:50:00,
2013-02-28 19:55:00,35.0,33.5,30.05,WSW,250,3.0,7.0,94,0.00,,,0.01,VWS V14.01,2013-03-01 00:55:00,
2013-02-28 20:00:00,35.0,33.5,30.06,WSW,248,3.0,3.0,94,0.00,,,0.01,VWS V14.01,2013-03-01 01:00:00,
2013-02-28 20:05:00,34.9,33.3,30.05,WSW,247,3.0,4.0,94,0.00,,,0.01,VWS V14.01,2013-03-01 01:05:00,
2013-02-28 20:10:00,34.9,33.3,30.05,WSW,247,0.0,0.0,94,0.00,,,0.01,VWS V14.01,2013-03-01 01:10:00,
2013-02-28 20:15:00,34.9,33.3,30.05,WSW,247,0.0,0.0,94,0.00,,,0.01,VWS V14.01,2013-03-01 01:15:00,
2013-02-28 20:20:00,34.8,33.2,30.05,WSW,248,3.0,4.0,94,0.00,,,0.01,VWS V14.01,2013-03-01 01:20:00,
2013-02-28 20:25:00,34.8,33.2,30.05,WSW,248,0.0,1.0,94,0.00,,,0.01,VWS V14.01,2013-03-01 01:25:00,
2013-02-28 20:30:00,34.8,33.5,30.05,WSW,248,0.0,0.0,95,0.00,,,0.01,VWS V14.01,2013-03-01 01:30:00,
2013-02-28 20:35:00,34.8,33.5,30.06,WSW,248,0.0,2.0,95,0.00,,,0.01,VWS V14.01,2013-03-01 01:35:00,
2013-02-28 20:40:00,34.8,33.5,30.06,WSW,248,0.0,2.0,95,0.00,,,0.01,VWS V14.01,2013-03-01 01:40:00,
2013-02-28 20:45:00,34.7,33.4,30.05,WSW,248,0.0,1.0,95,0.00,,,0.01,VWS V14.01,2013-03-01 01:45:00,
2013-02-28 20:50:00,34.7,33.4,30.06,WSW,248,0.0,0.0,95,0.00,,,0.01,VWS V14.01,2013-03-01 01:50:00,
2013-02-28 20:56:00,34.7,33.4,30.06,WSW,254,0.0,2.0,95,0.00,,,0.01,VWS V14.01,2013-03-01 01:56:00,
2013-02-28 21:01:00,34.6,33.3,30.06,WSW,258,3.0,3.0,95,0.00,,,0.01,VWS V14.01,2013-03-01 02:01:00,
2013-02-28 21:06:00,34.6,33.3,30.06,WSW,258,2.0,3.0,95,0.00,,,0.01,VWS V14.01,2013-03-01 02:06:00,
2013-02-28 21:11:00,34.5,33.2,30.06,WSW,258,0.0,0.0,95,0.00,,,0.01,VWS V14.01,2013-03-01 02:11:00,
2013-02-28 21:16:00,34.5,33.2,30.06,WSW,257,0.0,0.0,95,0.00,,,0.01,VWS V14.01,2013-03-01 02:16:00,
2013-02-28 21:21:00,34.5,33.2,30.06,West,261,0.0,1.0,95,0.00,,,0.01,VWS V14.01,2013-03-01 02:21:00,
2013-02-28 21:26:00,34.5,33.2,30.06,West,261,2.0,3.0,95,0.00,,,0.01,VWS V14.01,2013-03-01 02:26:00,
2013-02-28 21:31:00,34.4,33.1,30.06,West,261,1.0,3.0,95,0.00,,,0.01,VWS V14.01,2013-03-01 02:31:00,
2013-02-28 21:36:00,34.4,33.1,30.06,West,261,0.0,0.0,95,0.00,,,0.01,VWS V14.01,2013-03-01 02:36:00,
2013-02-28 21:41:00,34.5,33.2,30.06,West,261,0.0,0.0,95,0.00,,,0.01,VWS V14.01,2013-03-01 02:41:00,
2013-02-28 21:46:00,34.6,33.3,30.06,West,261,2.0,3.0,95,0.00,,,0.01,VWS V14.01,2013-03-01 02:46:00,
2013-02-28 21:51:00,34.6,33.3,30.07,West,260,2.0,2.0,95,0.00,,,0.01,VWS V14.01,2013-03-01 02:51:00,
2013-02-28 21:56:00,34.6,33.3,30.07,West,259,0.0,0.0,95,0.00,,,0.01,VWS V14.01,2013-03-01 02:56:00,
2013-02-28 22:01:00,34.6,33.3,30.07,WSW,256,5.0,5.0,95,0.00,,,0.01,VWS V14.01,2013-03-01 03:01:00,
2013-02-28 22:06:00,34.6,33.3,30.07,West,259,1.0,2.0,95,0.00,,,0.01,VWS V14.01,2013-03-01 03:06:00,
2013-02-28 22:11:00,34.6,33.3,30.07,WSW,257,1.0,2.0,95,0.00,,,0.01,VWS V14.01,2013-03-01 03:11:00,
2013-02-28 22:16:00,34.7,33.4,30.07,WSW,246,0.0,2.0,95,0.00,,,0.01,VWS V14.01,2013-03-01 03:16:00,
2013-02-28 22:21:00,34.6,33.3,30.07,WSW,250,3.0,3.0,95,0.00,,,0.01,VWS V14.01,2013-03-01 03:21:00,
2013-02-28 22:26:00,34.6,33.3,30.08,WSW,252,2.0,3.0,95,0.00,,,0.01,VWS V14.01,2013-03-01 03:26:00,
2013-02-28 22:31:00,34.6,33.3,30.08,WSW,252,0.0,1.0,95,0.00,,,0.01,VWS V14.01,2013-03-01 03:31:00,
2013-02-28 22:36:00,34.7,33.4,30.08,WSW,255,4.0,6.0,95,0.00,,,0.01,VWS V14.01,2013-03-01 03:36:00,
2013-02-28 22:41:00,34.6,33.3,30.08,WNW,284,1.0,3.0,95,0.00,,,0.01,VWS V14.01,2013-03-01 03:41:00,
2013-02-28 22:46:00,34.5,33.2,30.07,West,275,2.0,2.0,95,0.00,,,0.01,VWS V14.01,2013-03-01 03:46:00,
2013-02-28 22:52:00,34.4,33.1,30.07,West,274,2.0,3.0,95,0.00,,,0.01,VWS V14.01,2013-03-01 03:52:00,
2013-02-28 22:57:00,34.4,33.1,30.07,West,273,3.0,3.0,95,0.00,,,0.01,VWS V14.01,2013-03-01 03:57:00,
2013-02-28 23:02:00,34.4,33.1,30.07,West,267,2.0,2.0,95,0.00,,,0.01,VWS V14.01,2013-03-01 04:02:00,
2013-02-28 23:07:00,34.4,33.1,30.07,West,265,0.0,2.0,95,0.00,,,0.01,VWS V14.01,2013-03-01 04:07:00,
2013-02-28 23:12:00,34.4,33.1,30.07,West,265,0.0,1.0,95,0.00,,,0.01,VWS V14.01,2013-03-01 04:12:00,
2013-02-28 23:17:00,34.4,33.1,30.07,West,265,0.0,0.0,95,0.00,,,0.01,VWS V14.01,2013-03-01 04:17:00,
2013-02-28 23:22:00,34.4,33.4,30.07,West,266,0.0,0.0,96,0.00,,,0.01,VWS V14.01,2013-03-01 04:22:00,
2013-02-28 23:27:00,34.3,33.3,30.06,West,265,1.0,1.0,96,0.00,,,0.01,VWS V14.01,2013-03-01 04:27:00,
2013-02-28 23:32:00,34.2,33.2,30.06,West,266,0.0,2.0,96,0.00,,,0.01,VWS V14.01,2013-03-01 04:32:00,
2013-02-28 23:37:00,34.2,33.2,30.06,West,266,0.0,1.0,96,0.00,,,0.01,VWS V14.01,2013-03-01 04:37:00,
2013-02-28 23:42:00,34.3,33.3,30.06,West,266,1.0,2.0,96,0.00,,,0.01,VWS V14.01,2013-03-01 04:42:00,
2013-02-28 23:47:00,34.2,33.2,30.05,West,265,0.0,1.0,96,0.00,,,0.01,VWS V14.01,2013-03-01 04:47:00,
2013-02-28 23:52:00,34.2,33.2,30.05,West,266,0.0,0.0,96,0.00,,,0.01,VWS V14.01,2013-03-01 04:52:00,
2013-02-28 23:58:00,34.2,33.2,30.05,West,266,1.0,3.0,96,0.00,,,0.00,VWS V14.01,2013-03-01 04:58:00,